Time;durP1;ratioP1;P1;durP2;ratioP2;P2;SDS_P1;SDS_P2;PMS_P1;PMS_P2;Temp;Humidity;BMP_temperature;BMP_pressure;BME280_temperature;BME280_humidity;BME280_pressure;Samples;Min_cycle;Max_cycle;Signal;HPM_P1;HPM_P2
2022/05/29 00:01:56;;;;;;;5.00;1.88;;;10.40;78.60;;;;;;5029714;28;20223;-57
2022/05/29 00:04:22;;;;;;;5.57;1.30;;;10.40;78.60;;;;;;5068821;28;20158;-58
2022/05/29 00:06:50;;;;;;;4.50;1.38;;;10.40;79.30;;;;;;5050038;28;20547;-57
2022/05/29 00:09:31;;;;;;;5.20;1.35;;;10.50;77.90;;;;;;5069723;28;20028;-57
2022/05/29 00:11:57;;;;;;;3.65;1.45;;;10.40;81.30;;;;;;5050077;28;20033;-55
2022/05/29 00:14:22;;;;;;;5.85;1.70;;;10.50;79.40;;;;;;5052176;28;20071;-56
2022/05/29 00:16:48;;;;;;;9.88;1.70;;;10.40;78.60;;;;;;5033605;28;20440;-55
2022/05/29 00:19:13;;;;;;;3.78;1.20;;;10.40;79.50;;;;;;5054677;28;20037;-58
2022/05/29 00:21:39;;;;;;;3.25;1.15;;;10.30;80.70;;;;;;5070482;28;20021;-55
2022/05/29 00:24:07;;;;;;;2.00;0.85;;;10.30;79.80;;;;;;5049150;28;20052;-58
2022/05/29 00:26:33;;;;;;;5.40;1.27;;;10.30;80.60;;;;;;5055857;28;20124;-57
2022/05/29 00:28:58;;;;;;;5.93;1.38;;;10.30;81.80;;;;;;5068743;28;20457;-57
2022/05/29 00:31:24;;;;;;;6.50;1.38;;;10.30;80.90;;;;;;5050498;28;20021;-57
2022/05/29 00:33:49;;;;;;;4.00;1.10;;;10.30;81.20;;;;;;5068639;28;20021;-57
2022/05/29 00:36:16;;;;;;;5.53;1.02;;;10.30;81.00;;;;;;5048580;28;20037;-55
2022/05/29 00:38:44;;;;;;;4.95;1.02;;;10.30;82.80;;;;;;5068641;28;20021;-57
2022/05/29 00:41:21;;;;;;;5.53;1.25;;;10.40;81.80;;;;;;5050049;28;20128;-57
2022/05/29 00:44:15;;;;;;;2.88;0.93;;;10.30;81.90;;;;;;5046831;28;20055;-56
2022/05/29 00:46:49;;;;;;;2.58;0.98;;;10.40;81.70;;;;;;5041094;28;20037;-57
2022/05/29 00:49:17;;;;;;;4.80;1.05;;;10.40;81.40;;;;;;5042235;28;20374;-57
2022/05/29 00:52:08;;;;;;;6.03;1.55;;;10.40;80.50;;;;;;5049598;28;20067;-57
2022/05/29 00:54:42;;;;;;;3.75;1.23;;;10.40;80.50;;;;;;5042843;28;20269;-58
2022/05/29 00:57:14;;;;;;;7.72;1.50;;;10.40;80.00;;;;;;5031264;28;20026;-58
2022/05/29 00:59:40;;;;;;;5.72;1.20;;;10.50;79.90;;;;;;5036418;28;20261;-57
2022/05/29 01:02:05;;;;;;;5.28;1.50;;;10.50;79.70;;;;;;5030847;28;20029;-57
2022/05/29 01:04:36;;;;;;;3.60;0.93;;;10.50;79.70;;;;;;5051841;28;20033;-55
2022/05/29 01:07:06;;;;;;;8.77;1.48;;;10.50;80.50;;;;;;5033058;28;20573;-56
2022/05/29 01:09:33;;;;;;;5.55;1.52;;;10.50;80.10;;;;;;5028511;28;20037;-57
2022/05/29 01:12:29;;;;;;;5.30;1.40;;;10.50;80.00;;;;;;5050092;28;20033;-57
2022/05/29 01:15:10;;;;;;;5.97;1.20;;;10.50;80.00;;;;;;5045456;28;20037;-57
2022/05/29 01:17:51;;;;;;;3.75;1.23;;;10.50;79.80;;;;;;5030674;28;20033;-55
2022/05/29 01:20:28;;;;;;;2.65;0.93;;;10.50;79.40;;;;;;5033837;28;20025;-57
2022/05/29 01:23:31;;;;;;;4.00;1.55;;;10.50;79.30;;;;;;5044073;28;20503;-56
2022/05/29 01:26:22;;;;;;;6.00;1.40;;;10.50;79.70;;;;;;5058033;28;20052;-57
2022/05/29 01:29:03;;;;;;;2.88;1.10;;;10.40;80.20;;;;;;5045317;28;20481;-57
2022/05/29 01:31:41;;;;;;;5.45;1.38;;;10.30;81.10;;;;;;5037579;28;20029;-57
2022/05/29 01:34:24;;;;;;;6.70;1.88;;;10.30;82.80;;;;;;5039892;28;20082;-57
2022/05/29 01:37:09;;;;;;;6.93;1.50;;;10.20;84.20;;;;;;5070205;28;20025;-57
2022/05/29 01:39:50;;;;;;;6.75;1.70;;;10.10;85.50;;;;;;5053930;28;20020;-57
2022/05/29 01:42:27;;;;;;;7.45;1.73;;;10.10;85.80;;;;;;5064768;28;20027;-56
2022/05/29 01:45:04;;;;;;;4.95;1.48;;;10.00;84.40;;;;;;5047834;28;20078;-57
2022/05/29 01:47:50;;;;;;;3.92;1.15;;;10.00;86.20;;;;;;5032913;28;20100;-57
2022/05/29 01:50:28;;;;;;;7.38;1.77;;;9.90;87.10;;;;;;5054645;28;20029;-57
2022/05/29 01:52:59;;;;;;;4.07;1.20;;;9.90;89.00;;;;;;5035252;28;20056;-56
2022/05/29 01:55:30;;;;;;;4.25;1.20;;;10.00;87.40;;;;;;5037373;28;20400;-56
2022/05/29 01:58:04;;;;;;;5.43;1.30;;;10.00;86.30;;;;;;5032812;28;20029;-57
2022/05/29 02:00:30;;;;;;;2.72;1.02;;;10.00;85.70;;;;;;5038133;28;20056;-55
2022/05/29 02:03:07;;;;;;;6.55;1.60;;;10.10;84.40;;;;;;5068919;28;20035;-56
2022/05/29 02:06:04;;;;;;;4.88;1.23;;;10.10;84.90;;;;;;5044181;28;20032;-58
2022/05/29 02:08:36;;;;;;;6.75;1.60;;;10.10;86.10;;;;;;5038828;28;20055;-56
2022/05/29 02:11:15;;;;;;;4.38;1.48;;;10.10;84.50;;;;;;5057622;28;20167;-57
2022/05/29 02:13:50;;;;;;;3.47;1.50;;;10.20;84.50;;;;;;5031559;28;20042;-55
2022/05/29 02:16:20;;;;;;;2.63;1.27;;;10.20;83.80;;;;;;5055983;28;20522;-57
2022/05/29 02:18:53;;;;;;;2.53;1.10;;;10.20;83.70;;;;;;5043214;28;20028;-57
2022/05/29 02:21:42;;;;;;;4.18;1.50;;;10.20;83.10;;;;;;5055550;28;20033;-57
2022/05/29 02:24:13;;;;;;;2.67;1.23;;;10.20;83.60;;;;;;5039465;28;20025;-57
2022/05/29 02:26:46;;;;;;;5.97;1.55;;;10.20;82.60;;;;;;5042286;28;20049;-57
2022/05/29 02:29:12;;;;;;;8.10;1.50;;;10.20;82.50;;;;;;5038807;28;20465;-56
2022/05/29 02:31:47;;;;;;;6.30;1.65;;;10.20;83.40;;;;;;5038341;28;20060;-57
2022/05/29 02:34:41;;;;;;;5.53;1.50;;;10.20;83.90;;;;;;5039803;28;20418;-57
2022/05/29 02:37:22;;;;;;;4.55;1.30;;;10.20;85.50;;;;;;5029275;28;20029;-57
2022/05/29 02:40:09;;;;;;;2.72;1.00;;;10.20;84.00;;;;;;5052998;28;20029;-55
2022/05/29 02:42:59;;;;;;;6.35;1.10;;;10.10;83.80;;;;;;5043412;28;20111;-57
2022/05/29 02:45:43;;;;;;;4.47;1.20;;;10.10;85.40;;;;;;5042595;28;20033;-56
2022/05/29 02:48:25;;;;;;;7.35;1.52;;;10.10;86.10;;;;;;5029051;28;20029;-57
2022/05/29 02:50:57;;;;;;;2.17;1.05;;;10.10;86.40;;;;;;5042510;28;20516;-57
2022/05/29 02:53:24;;;;;;;4.32;1.83;;;10.00;85.80;;;;;;5029933;28;20021;-56
2022/05/29 02:55:50;;;;;;;9.38;1.52;;;10.10;86.20;;;;;;5032422;28;20106;-57
2022/05/29 02:58:27;;;;;;;3.92;1.45;;;10.10;86.30;;;;;;5063332;28;20036;-57
2022/05/29 03:01:02;;;;;;;5.80;1.33;;;10.10;86.20;;;;;;5020017;28;20025;-53
2022/05/29 03:03:38;;;;;;;2.00;1.13;;;10.10;87.10;;;;;;5028270;28;20021;-57
2022/05/29 03:06:51;;;;;;;2.90;1.02;;;10.20;86.60;;;;;;5047722;28;20416;-57
2022/05/29 03:09:42;;;;;;;5.05;1.30;;;10.20;87.80;;;;;;5014043;28;20038;-58
2022/05/29 03:12:20;;;;;;;3.33;1.27;;;10.20;87.00;;;;;;5035782;28;20107;-59
2022/05/29 03:14:59;;;;;;;3.60;1.35;;;10.30;87.00;;;;;;5039969;28;20119;-59
2022/05/29 03:17:52;;;;;;;3.15;1.40;;;10.30;86.90;;;;;;5028626;28;20072;-58
2022/05/29 03:20:37;;;;;;;2.55;1.27;;;10.30;87.00;;;;;;5037082;28;20523;-59
2022/05/29 03:23:34;;;;;;;4.60;1.40;;;10.30;86.70;;;;;;5040501;28;20036;-59
2022/05/29 03:26:03;;;;;;;4.90;1.35;;;10.40;86.90;;;;;;5055789;28;20056;-59
2022/05/29 03:28:47;;;;;;;3.63;1.10;;;10.40;87.60;;;;;;5045793;28;20029;-59
2022/05/29 03:31:16;;;;;;;6.63;1.30;;;10.40;88.10;;;;;;5062837;28;20104;-58
2022/05/29 03:33:44;;;;;;;4.38;1.20;;;10.40;88.00;;;;;;5069451;28;20029;-59
2022/05/29 03:36:15;;;;;;;4.30;1.30;;;10.40;87.10;;;;;;5067803;28;20045;-57
2022/05/29 03:38:41;;;;;;;4.90;1.08;;;10.40;87.90;;;;;;5035019;28;20457;-59
2022/05/29 03:41:28;;;;;;;8.05;1.50;;;10.50;88.00;;;;;;5066069;28;20033;-59
2022/05/29 03:43:53;;;;;;;4.70;1.33;;;10.50;89.70;;;;;;5050006;28;20024;-58
2022/05/29 03:46:19;;;;;;;8.77;1.60;;;10.50;89.90;;;;;;5066485;28;20435;-58
2022/05/29 03:48:44;;;;;;;5.70;1.10;;;10.50;89.20;;;;;;5055186;28;20404;-59
2022/05/29 03:51:10;;;;;;;5.13;1.30;;;10.50;90.10;;;;;;5056457;28;20033;-59
2022/05/29 03:53:36;;;;;;;2.05;1.13;;;10.50;90.40;;;;;;5069303;28;20055;-59
2022/05/29 03:56:03;;;;;;;5.50;1.67;;;10.60;90.10;;;;;;5058221;28;20041;-58
2022/05/29 03:58:28;;;;;;;2.92;1.10;;;10.60;90.90;;;;;;5069505;28;20024;-58
2022/05/29 04:00:54;;;;;;;5.65;1.80;;;10.60;90.40;;;;;;5044804;28;20082;-58
2022/05/29 04:03:19;;;;;;;4.45;1.25;;;10.70;91.30;;;;;;5055083;28;20393;-58
2022/05/29 04:05:45;;;;;;;3.08;1.48;;;10.70;91.00;;;;;;5059191;28;20025;-59
2022/05/29 04:13:43;;;;;;;6.00;1.30;;;10.90;90.90;;;;;;5034284;28;20059;-58
2022/05/29 04:16:09;;;;;;;5.82;1.70;;;10.90;90.60;;;;;;5051690;28;20048;-59
2022/05/29 04:18:37;;;;;;;5.22;1.40;;;10.90;90.60;;;;;;5052953;28;20052;-59
2022/05/29 04:21:03;;;;;;;2.53;1.13;;;10.90;90.30;;;;;;5061018;28;20036;-59
2022/05/29 04:23:28;;;;;;;4.78;1.45;;;10.90;91.00;;;;;;5068761;28;20038;-58
2022/05/29 04:25:54;;;;;;;4.47;1.30;;;10.90;90.50;;;;;;5058585;28;20483;-59
2022/05/29 04:28:19;;;;;;;7.03;1.40;;;10.90;90.30;;;;;;5044652;28;20033;-57
2022/05/29 04:30:45;;;;;;;4.97;1.55;;;10.90;89.70;;;;;;5063041;28;20390;-56
2022/05/29 04:33:11;;;;;;;5.03;1.38;;;11.00;90.50;;;;;;5067839;28;20396;-58
2022/05/29 04:35:48;;;;;;;3.80;1.35;;;11.00;89.70;;;;;;5064631;28;20094;-58
2022/05/29 04:38:15;;;;;;;2.83;1.30;;;11.00;88.90;;;;;;5033209;28;20500;-58
2022/05/29 04:40:42;;;;;;;4.13;1.30;;;11.10;89.00;;;;;;5064880;28;20032;-57
2022/05/29 04:43:09;;;;;;;6.03;1.77;;;11.10;87.80;;;;;;5046702;28;20111;-57
2022/05/29 04:45:37;;;;;;;7.22;1.35;;;11.20;87.50;;;;;;5065936;28;20043;-57
2022/05/29 04:48:02;;;;;;;6.15;1.60;;;11.20;86.40;;;;;;5052788;28;20025;-58
2022/05/29 04:50:28;;;;;;;3.65;1.20;;;11.20;86.50;;;;;;5064229;28;20507;-57
2022/05/29 04:52:54;;;;;;;3.53;1.52;;;11.30;85.70;;;;;;5051609;28;20090;-58
2022/05/29 04:55:19;;;;;;;2.78;1.70;;;11.40;85.20;;;;;;5048807;28;20033;-58
2022/05/29 04:57:45;;;;;;;4.82;1.40;;;11.50;84.70;;;;;;5047164;28;20031;-50
2022/05/29 05:00:11;;;;;;;4.47;1.73;;;11.50;83.30;;;;;;5050745;28;20027;-54
2022/05/29 05:02:37;;;;;;;4.10;1.50;;;11.50;82.10;;;;;;5033143;28;20045;-48
2022/05/29 05:05:03;;;;;;;2.67;1.42;;;11.60;81.50;;;;;;5050827;28;20021;-50
2022/05/29 05:07:29;;;;;;;4.43;1.63;;;11.60;80.30;;;;;;5050335;28;20037;-50
2022/05/29 05:09:55;;;;;;;5.32;1.80;;;11.70;79.30;;;;;;5052251;28;20035;-49
2022/05/29 05:12:20;;;;;;;3.08;1.52;;;11.80;78.70;;;;;;5052846;28;20366;-49
2022/05/29 05:14:46;;;;;;;3.88;1.48;;;11.80;78.30;;;;;;5053025;28;20037;-52
2022/05/29 05:17:11;;;;;;;4.82;1.40;;;11.90;78.00;;;;;;5043819;28;20025;-49
2022/05/29 05:19:37;;;;;;;4.82;1.48;;;12.10;77.00;;;;;;5053867;28;20089;-49
2022/05/29 05:22:04;;;;;;;4.65;1.40;;;12.10;76.10;;;;;;5056606;28;20025;-46
2022/05/29 05:24:29;;;;;;;4.63;1.80;;;12.20;75.80;;;;;;5037687;28;20065;-51
2022/05/29 05:26:58;;;;;;;7.30;2.13;;;12.10;76.50;;;;;;5019578;28;1006877;-54
2022/05/29 05:29:24;;;;;;;5.63;1.60;;;12.10;76.40;;;;;;5068373;28;20028;-54
2022/05/29 05:31:49;;;;;;;4.15;1.40;;;12.10;75.70;;;;;;5049617;28;20393;-50
2022/05/29 05:34:15;;;;;;;4.75;1.50;;;12.20;75.80;;;;;;5059915;28;20451;-52
2022/05/29 05:36:40;;;;;;;3.75;1.20;;;12.30;75.20;;;;;;5069582;28;20020;-54
2022/05/29 05:39:06;;;;;;;4.35;1.50;;;12.30;75.00;;;;;;5048900;28;20060;-51
2022/05/29 05:41:31;;;;;;;4.25;1.63;;;12.40;74.30;;;;;;5068836;28;20024;-51
2022/05/29 05:43:57;;;;;;;5.65;1.20;;;12.40;74.10;;;;;;5046287;28;20021;-49
2022/05/29 05:46:22;;;;;;;4.35;1.33;;;12.50;74.00;;;;;;5029003;28;20033;-49
2022/05/29 05:48:48;;;;;;;6.47;2.05;;;12.50;73.40;;;;;;5058388;28;20025;-50
2022/05/29 05:51:14;;;;;;;3.58;1.65;;;12.60;72.50;;;;;;5058398;28;20025;-51
2022/05/29 05:53:41;;;;;;;4.85;1.90;;;12.60;72.00;;;;;;5067575;28;20068;-54
2022/05/29 05:56:13;;;;;;;4.80;1.85;;;12.70;72.50;;;;;;5058251;28;20025;-51
2022/05/29 05:58:39;;;;;;;8.35;2.10;;;12.90;71.20;;;;;;5029049;28;20400;-53
2022/05/29 06:01:09;;;;;;;3.90;1.40;;;13.10;70.10;;;;;;5032653;28;20036;-54
2022/05/29 06:03:34;;;;;;;4.13;1.70;;;13.30;68.20;;;;;;5065076;28;20032;-52
2022/05/29 06:06:00;;;;;;;4.60;1.45;;;13.40;66.50;;;;;;5027285;28;20512;-53
2022/05/29 06:08:26;;;;;;;4.80;1.60;;;13.50;66.00;;;;;;5064000;28;20036;-52
2022/05/29 06:10:51;;;;;;;2.00;1.10;;;13.60;65.60;;;;;;5031211;28;20041;-52
2022/05/29 06:13:17;;;;;;;5.45;1.90;;;13.60;64.60;;;;;;5052559;28;20018;-53
2022/05/29 06:15:44;;;;;;;4.47;1.80;;;13.50;63.90;;;;;;5044676;28;20425;-52
2022/05/29 06:18:10;;;;;;;8.30;2.00;;;13.50;65.40;;;;;;5055565;28;20024;-53
2022/05/29 06:20:36;;;;;;;3.72;1.55;;;13.50;64.80;;;;;;5039254;28;20044;-55
2022/05/29 06:23:02;;;;;;;3.00;1.60;;;13.40;66.20;;;;;;5055961;28;20033;-50
2022/05/29 06:25:27;;;;;;;4.43;1.50;;;13.30;66.30;;;;;;5040642;28;20502;-53
2022/05/29 06:27:52;;;;;;;4.35;1.63;;;13.20;66.40;;;;;;5061316;28;20577;-49
2022/05/29 06:30:18;;;;;;;5.05;1.50;;;13.10;68.10;;;;;;5038927;28;20044;-53
2022/05/29 06:32:44;;;;;;;3.03;1.40;;;12.90;69.10;;;;;;5062737;28;20388;-50
2022/05/29 06:35:11;;;;;;;3.25;1.77;;;12.80;69.60;;;;;;5026376;28;20037;-48
2022/05/29 06:37:37;;;;;;;2.25;1.40;;;12.80;69.80;;;;;;5035755;28;20087;-52
2022/05/29 06:40:03;;;;;;;5.60;1.92;;;12.90;69.90;;;;;;5052008;28;20032;-54
2022/05/29 06:42:29;;;;;;;4.50;1.67;;;12.90;69.30;;;;;;5027705;28;20051;-49
2022/05/29 06:44:55;;;;;;;5.68;1.42;;;13.00;67.80;;;;;;5046687;28;20026;-53
2022/05/29 06:47:20;;;;;;;5.35;1.58;;;13.00;67.50;;;;;;5030420;28;20025;-49
2022/05/29 06:49:49;;;;;;;6.07;2.08;;;13.00;66.90;;;;;;5053718;28;20767;-52
2022/05/29 06:52:15;;;;;;;6.25;1.40;;;13.10;67.20;;;;;;5037998;28;20025;-51
2022/05/29 06:54:41;;;;;;;7.38;2.15;;;13.10;67.30;;;;;;5040745;28;20048;-52
2022/05/29 06:57:07;;;;;;;6.00;2.03;;;13.00;67.40;;;;;;5038288;28;20052;-54
2022/05/29 07:09:54;;;;;;;6.93;1.83;;;12.80;70.00;;;;;;5035982;28;20052;-50
2022/05/29 07:13:19;;;;;;;3.42;1.42;;;12.70;70.40;;;;;;5042888;28;20037;-45
2022/05/29 07:16:45;;;;;;;5.18;1.92;;;12.70;70.80;;;;;;5033243;28;20492;-47
2022/05/29 07:20:10;;;;;;;7.68;2.03;;;12.60;70.70;;;;;;5038835;28;20241;-50
2022/05/29 07:23:35;;;;;;;2.72;1.73;;;12.50;71.70;;;;;;5036852;28;20044;-46
2022/05/29 07:27:01;;;;;;;6.28;1.63;;;12.50;72.50;;;;;;5049306;28;20071;-47
2022/05/29 07:30:26;;;;;;;4.80;1.50;;;12.70;71.80;;;;;;5040155;28;20041;-46
2022/05/29 07:33:52;;;;;;;3.50;1.70;;;13.10;69.30;;;;;;5038349;28;20033;-47
2022/05/29 07:37:23;;;;;;;4.30;1.55;;;13.70;63.60;;;;;;5045714;28;20496;-50
2022/05/29 07:40:48;;;;;;;3.38;1.58;;;14.70;59.40;;;;;;5043531;28;20067;-49
2022/05/29 07:44:14;;;;;;;4.65;1.92;;;15.50;52.30;;;;;;5061505;28;20079;-50
2022/05/29 07:47:40;;;;;;;6.10;1.92;;;17.80;42.50;;;;;;5059105;28;20079;-53
2022/05/29 07:51:05;;;;;;;5.40;1.55;;;18.70;35.30;;;;;;5062061;28;20060;-52
2022/05/29 07:54:30;;;;;;;7.15;1.52;;;18.60;33.00;;;;;;5049368;28;20120;-52
2022/05/29 07:57:55;;;;;;;4.43;1.95;;;18.50;30.50;;;;;;5063453;28;20554;-51
2022/05/29 08:01:21;;;;;;;3.67;1.98;;;18.50;31.40;;;;;;5051071;28;20046;-53
2022/05/29 08:04:46;;;;;;;6.22;2.45;;;18.90;31.50;;;;;;5056762;28;20044;-48
2022/05/29 08:08:13;;;;;;;4.00;2.33;;;18.70;27.80;;;;;;5062255;28;20036;-52
2022/05/29 08:11:37;;;;;;;5.30;2.75;;;18.30;29.30;;;;;;5046787;28;20511;-49
2022/05/29 08:15:02;;;;;;;4.95;1.60;;;17.90;31.10;;;;;;5056358;28;20055;-51
2022/05/29 08:18:27;;;;;;;2.47;1.45;;;17.60;34.60;;;;;;5064370;28;20033;-52
2022/05/29 08:21:53;;;;;;;4.60;1.50;;;17.80;32.20;;;;;;5056260;28;20028;-47
2022/05/29 08:32:06;;;;;;;5.82;1.80;;;17.10;34.60;;;;;;5053395;28;20516;-48
2022/05/29 08:35:31;;;;;;;4.65;1.58;;;16.70;35.70;;;;;;5059826;28;20044;-45
2022/05/29 08:38:57;;;;;;;4.32;2.08;;;16.40;37.90;;;;;;5060026;28;20032;-49
2022/05/29 08:42:25;;;;;;;6.55;1.63;;;16.20;37.50;;;;;;5044003;28;20045;-50
2022/05/29 08:45:51;;;;;;;3.63;1.80;;;16.00;37.80;;;;;;5065631;28;20058;-51
2022/05/29 08:49:16;;;;;;;5.95;1.92;;;15.80;39.90;;;;;;5056510;28;20224;-45
2022/05/29 08:52:29;;;;;;;4.55;1.30;;;15.70;40.40;;;;;;5062375;28;20653;-46
2022/05/29 08:55:41;;;;;;;4.88;2.00;;;15.40;43.50;;;;;;5033122;28;20037;-49
2022/05/29 08:58:49;;;;;;;4.63;1.58;;;15.50;43.40;;;;;;5056171;28;20339;-48
2022/05/29 09:02:20;;;;;;;5.55;1.83;;;15.40;43.90;;;;;;5044953;28;20048;-48
2022/05/29 09:05:32;;;;;;;7.93;1.95;;;15.30;46.90;;;;;;5064120;28;20032;-49
2022/05/29 09:08:57;;;;;;;6.32;1.52;;;15.40;48.20;;;;;;5052252;28;20335;-48
2022/05/29 09:12:26;;;;;;;3.40;1.65;;;16.00;45.30;;;;;;5051027;28;20033;-50
2022/05/29 09:15:57;;;;;;;4.75;1.63;;;16.80;40.30;;;;;;5064871;28;20094;-50
2022/05/29 09:19:03;;;;;;;4.60;1.80;;;18.10;31.80;;;;;;5030627;28;20030;-53
2022/05/29 09:22:31;;;;;;;3.33;1.42;;;19.50;29.30;;;;;;5058254;28;20029;-49
2022/05/29 09:26:06;;;;;;;5.43;1.48;;;19.70;27.20;;;;;;5058412;28;20052;-49
2022/05/29 09:29:31;;;;;;;3.53;1.30;;;18.70;25.00;;;;;;5030540;28;20481;-47
2022/05/29 09:32:56;;;;;;;2.70;1.40;;;18.40;27.10;;;;;;5065879;28;20056;-52
2022/05/29 09:36:22;;;;;;;4.53;1.58;;;18.40;28.00;;;;;;5060758;28;20492;-51
2022/05/29 09:39:45;;;;;;;6.97;1.30;;;18.40;28.60;;;;;;5030198;28;20091;-46
2022/05/29 09:43:11;;;;;;;4.15;1.13;;;18.20;29.50;;;;;;5030054;28;20411;-49
2022/05/29 09:46:36;;;;;;;4.10;1.42;;;17.90;29.80;;;;;;5049123;28;20091;-51
2022/05/29 09:49:45;;;;;;;3.63;1.70;;;17.60;30.60;;;;;;5030011;28;20509;-51
2022/05/29 09:53:09;;;;;;;2.13;1.25;;;17.60;34.40;;;;;;5052913;28;20048;-51
2022/05/29 09:56:47;;;;;;;2.58;1.05;;;17.50;34.20;;;;;;5062054;28;20040;-50
2022/05/29 10:00:15;;;;;;;3.40;0.93;;;17.30;36.20;;;;;;5056506;28;20047;-48
2022/05/29 10:03:48;;;;;;;1.77;1.10;;;17.00;37.60;;;;;;5068990;28;20029;-46
2022/05/29 10:07:18;;;;;;;1.23;1.00;;;16.90;36.10;;;;;;5050919;28;20045;-48
2022/05/29 10:10:24;;;;;;;1.92;0.95;;;17.20;36.80;;;;;;5061666;28;20598;-52
2022/05/29 10:14:01;;;;;;;1.48;0.88;;;17.30;39.10;;;;;;5051405;28;20045;-50
2022/05/29 10:17:12;;;;;;;2.55;0.95;;;17.80;36.20;;;;;;5049677;28;20115;-49
2022/05/29 10:20:43;;;;;;;3.03;1.00;;;18.50;32.70;;;;;;5057740;28;20036;-47
2022/05/29 10:24:09;;;;;;;3.05;1.02;;;19.30;30.60;;;;;;5049663;28;20067;-51
2022/05/29 10:27:23;;;;;;;3.13;1.10;;;20.40;26.80;;;;;;5059321;28;20044;-53
2022/05/29 10:30:58;;;;;;;2.10;1.00;;;20.70;24.70;;;;;;5058919;28;20055;-50
2022/05/29 10:34:03;;;;;;;2.75;0.93;;;20.00;21.80;;;;;;5047440;28;20123;-47
2022/05/29 10:37:47;;;;;;;1.92;1.20;;;19.30;24.10;;;;;;5044985;28;20051;-47
2022/05/29 10:41:12;;;;;;;3.38;1.00;;;18.80;22.90;;;;;;5063893;28;20032;-48
2022/05/29 10:44:36;;;;;;;2.00;0.90;;;18.60;20.90;;;;;;5045716;28;20405;-48
2022/05/29 10:48:03;;;;;;;3.95;1.05;;;18.10;24.70;;;;;;5057675;28;20031;-47
2022/05/29 10:51:33;;;;;;;2.30;1.13;;;17.70;26.90;;;;;;5061617;28;20563;-50
2022/05/29 10:54:39;;;;;;;1.80;1.00;;;18.00;27.60;;;;;;5044072;28;20111;-45
2022/05/29 10:57:37;;;;;;;3.80;1.47;;;18.70;26.10;;;;;;5030197;28;20556;-49
2022/05/29 11:00:23;;;;;;;2.78;1.05;;;19.10;23.90;;;;;;5047090;28;20293;-59
2022/05/29 11:03:18;;;;;;;2.15;0.80;;;18.90;23.90;;;;;;5054608;28;20029;-59
2022/05/29 11:06:02;;;;;;;1.13;0.65;;;18.30;24.70;;;;;;5029061;28;20033;-59
2022/05/29 11:08:53;;;;;;;1.58;0.47;;;17.50;26.00;;;;;;5029169;28;20041;-60
2022/05/29 11:12:32;;;;;;;1.90;0.75;;;16.80;30.40;;;;;;5053514;28;20032;-47
2022/05/29 11:15:53;;;;;;;0.95;0.57;;;16.20;37.50;;;;;;5029051;28;20623;-48
2022/05/29 11:19:16;;;;;;;1.17;0.60;;;15.90;40.60;;;;;;5040216;28;20076;-48
2022/05/29 11:22:05;;;;;;;0.98;0.60;;;15.60;47.50;;;;;;5051695;28;20035;-45
2022/05/29 11:25:33;;;;;;;2.63;0.50;;;15.80;43.70;;;;;;5063162;28;20048;-48
2022/05/29 11:28:42;;;;;;;;;;;16.30;41.90;;;;;;5041713;28;20077;-50
2022/05/29 11:31:50;;;;;;;;;;;16.90;39.70;;;;;;5042171;28;19909;-50
2022/05/29 11:34:35;;;;;;;;;;;17.60;38.40;;;;;;5029401;28;20000;-49
2022/05/29 11:38:05;;;;;;;3.53;0.90;;;17.90;32.80;;;;;;5033093;28;19916;-49
2022/05/29 11:41:38;;;;;;;1.80;0.60;;;18.10;30.80;;;;;;5007641;28;20030;-49
2022/05/29 11:45:18;;;;;;;1.10;0.85;;;18.60;31.40;;;;;;5035243;28;20476;-49
2022/05/29 11:52:07;;;;;;;0.95;0.60;;;17.70;30.20;;;;;;5028778;28;20432;-47
2022/05/29 11:55:33;;;;;;;1.10;0.63;;;17.30;32.20;;;;;;5050191;28;20049;-49
2022/05/29 11:59:04;;;;;;;2.67;1.23;;;16.90;36.40;;;;;;5038112;28;20513;-46
2022/05/29 12:02:19;;;;;;;2.25;0.70;;;16.50;41.90;;;;;;5051368;28;20040;-46
2022/05/29 12:05:56;;;;;;;2.63;0.60;;;16.10;42.50;;;;;;5068612;28;20055;-47
2022/05/29 12:09:43;;;;;;;2.70;0.77;;;15.70;44.90;;;;;;5035250;28;20034;-46
2022/05/29 12:13:18;;;;;;;2.45;0.77;;;15.40;47.20;;;;;;5053155;28;20041;-51
2022/05/29 12:16:43;;;;;;;1.63;0.70;;;15.30;44.60;;;;;;5059108;28;20045;-46
2022/05/29 12:20:08;;;;;;;1.50;1.23;;;15.40;43.50;;;;;;5057072;28;20044;-47
2022/05/29 12:23:37;;;;;;;4.10;1.23;;;15.60;41.40;;;;;;5048249;28;20094;-50
2022/05/29 12:27:19;;;;;;;1.40;0.82;;;15.80;39.70;;;;;;5033264;28;20049;-52
2022/05/29 12:30:06;;;;;;;2.70;0.80;;;16.20;39.00;;;;;;5052953;28;20467;-48
2022/05/29 12:33:32;;;;;;;1.10;0.75;;;16.50;37.50;;;;;;5039582;28;20119;-45
2022/05/29 12:36:23;;;;;;;2.67;0.80;;;16.70;38.50;;;;;;5065532;28;20048;-49
2022/05/29 12:39:28;;;;;;;1.40;0.80;;;16.60;37.20;;;;;;5046155;28;20448;-49
2022/05/29 12:42:55;;;;;;;1.92;1.00;;;16.60;36.10;;;;;;5034273;28;20108;-48
2022/05/29 12:46:42;;;;;;;4.90;1.02;;;16.70;32.90;;;;;;5053535;28;20469;-48
2022/05/29 12:50:17;;;;;;;1.38;0.80;;;16.90;32.00;;;;;;5051222;28;20029;-44
2022/05/29 12:53:26;;;;;;;2.50;1.10;;;17.20;28.50;;;;;;5038687;28;20041;-45
2022/05/29 12:56:28;;;;;;;2.55;0.90;;;17.60;27.40;;;;;;5038847;28;20171;-48
2022/05/29 12:59:31;;;;;;;1.90;0.77;;;18.00;25.10;;;;;;5048732;28;20061;-49
2022/05/29 13:02:38;;;;;;;1.90;0.82;;;18.60;23.90;;;;;;5044043;28;20124;-49
2022/05/29 13:05:48;;;;;;;1.27;1.00;;;19.00;22.50;;;;;;5031321;28;20402;-47
2022/05/29 13:09:23;;;;;;;5.18;1.08;;;19.30;21.10;;;;;;5049911;28;20467;-53
2022/05/29 13:12:29;;;;;;;2.42;1.10;;;19.20;21.50;;;;;;5027161;28;20496;-50
2022/05/29 13:14:59;;;;;;;2.40;1.08;;;19.00;23.10;;;;;;5039327;28;20103;-47
2022/05/29 13:18:05;;;;;;;4.97;1.48;;;18.80;23.40;;;;;;5056490;28;20034;-46
2022/05/29 13:21:45;;;;;;;2.58;1.17;;;18.80;22.10;;;;;;5031282;28;20485;-46
2022/05/29 13:25:20;;;;;;;3.75;1.10;;;18.70;22.20;;;;;;5039889;28;20064;-50
2022/05/29 13:28:31;;;;;;;3.20;1.20;;;19.00;22.20;;;;;;5034462;28;20132;-47
2022/05/29 13:32:09;;;;;;;3.22;0.90;;;19.10;21.20;;;;;;5048026;28;20086;-46
2022/05/29 13:35:03;;;;;;;3.78;0.88;;;19.20;21.60;;;;;;5036992;28;20041;-47
2022/05/29 13:38:28;;;;;;;6.50;1.27;;;19.10;21.50;;;;;;5038474;28;20036;-50
2022/05/29 13:41:52;;;;;;;1.70;0.85;;;19.10;22.10;;;;;;5046073;28;20060;-50
2022/05/29 13:45:18;;;;;;;1.88;0.80;;;19.20;22.10;;;;;;5041459;28;20037;-47
2022/05/29 13:48:35;;;;;;;2.47;1.27;;;19.20;21.50;;;;;;5028257;28;20069;-51
2022/05/29 13:52:00;;;;;;;2.22;1.33;;;19.30;21.70;;;;;;5035897;28;20542;-48
2022/05/29 13:55:32;;;;;;;1.20;0.90;;;19.30;20.90;;;;;;5041672;28;20045;-46
2022/05/29 14:06:03;;;;;;;2.92;1.30;;;19.50;20.80;;;;;;5041309;28;20048;-49
2022/05/29 14:09:11;;;;;;;1.02;0.80;;;19.60;20.20;;;;;;5048450;28;20033;-47
2022/05/29 14:12:17;;;;;;;2.47;0.80;;;19.70;20.80;;;;;;5029616;28;20058;-50
2022/05/29 14:15:41;;;;;;;1.02;0.63;;;19.70;20.90;;;;;;5035952;28;20099;-51
2022/05/29 14:19:10;;;;;;;1.15;0.75;;;19.70;19.30;;;;;;5047585;28;20048;-50
2022/05/29 14:22:38;;;;;;;3.25;0.90;;;19.60;19.10;;;;;;5042808;28;20098;-48
2022/05/29 14:25:29;;;;;;;1.08;0.68;;;19.50;19.40;;;;;;5026888;28;20453;-49
2022/05/29 14:28:20;;;;;;;1.40;0.85;;;19.30;19.20;;;;;;5046910;28;20095;-50
2022/05/29 14:31:41;;;;;;;2.15;0.75;;;19.00;21.50;;;;;;5034839;28;20080;-46
2022/05/29 14:34:51;;;;;;;1.30;0.70;;;18.80;20.20;;;;;;5025072;28;20106;-52
2022/05/29 14:38:23;;;;;;;2.70;0.77;;;18.40;21.00;;;;;;5038533;28;20037;-50
2022/05/29 14:41:54;;;;;;;1.65;0.77;;;18.20;21.10;;;;;;5041521;28;20033;-46
2022/05/29 14:45:32;;;;;;;0.85;0.60;;;17.90;22.00;;;;;;5041444;28;20044;-48
2022/05/29 14:49:10;;;;;;;1.63;0.80;;;17.60;22.30;;;;;;5028681;28;20115;-52
2022/05/29 14:52:15;;;;;;;1.33;0.70;;;17.30;25.40;;;;;;5052289;28;20131;-49
2022/05/29 14:55:47;;;;;;;1.42;0.60;;;17.10;27.10;;;;;;5032682;28;20493;-53
2022/05/29 14:59:14;;;;;;;1.23;0.80;;;17.10;27.80;;;;;;5053156;28;20044;-51
2022/05/29 15:02:20;;;;;;;1.27;0.88;;;16.70;28.10;;;;;;5031114;28;20409;-53
2022/05/29 15:05:52;;;;;;;2.05;0.80;;;16.80;28.60;;;;;;5045126;28;20400;-52
2022/05/29 15:12:20;;;;;;;1.30;0.63;;;17.10;27.40;;;;;;5025973;28;20040;-56
2022/05/29 15:16:09;;;;;;;1.33;0.73;;;17.10;27.90;;;;;;5052120;28;20080;-55
2022/05/29 15:26:40;;;;;;;1.23;0.70;;;17.00;28.10;;;;;;5060130;28;20056;-56
2022/05/29 15:30:12;;;;;;;1.33;0.60;;;17.10;27.90;;;;;;5060743;28;20040;-55
2022/05/29 15:33:14;;;;;;;;;;;17.30;27.40;;;;;;5053682;28;20028;-56
2022/05/29 15:36:43;;;;;;;0.73;0.50;;;17.60;26.80;;;;;;5052529;28;20049;-51
2022/05/29 15:40:07;;;;;;;1.30;0.77;;;17.90;25.80;;;;;;5060900;28;20155;-51
2022/05/29 15:43:38;;;;;;;2.85;0.70;;;18.00;24.70;;;;;;5047322;28;20035;-52
2022/05/29 15:47:37;;;;;;;0.93;0.60;;;17.90;23.40;;;;;;5043535;28;20036;-54
2022/05/29 15:51:04;;;;;;;1.90;0.52;;;17.80;22.60;;;;;;5046291;28;20029;-54
2022/05/29 15:54:39;;;;;;;1.23;0.70;;;17.80;22.40;;;;;;5032290;28;20417;-49
2022/05/29 15:57:30;;;;;;;1.25;0.75;;;17.60;23.10;;;;;;5048091;28;20455;-55